createdAt,value
2019-05-06T00:00:51.980Z,8.00
2019-05-06T00:01:38.943Z,8.00
2019-05-06T00:02:38.943Z,8.00
2019-05-06T00:03:38.927Z,8.00
2019-05-06T00:04:39.368Z,8.00
2019-05-06T00:05:38.905Z,8.00
2019-05-06T00:06:38.898Z,8.00
2019-05-06T00:07:38.883Z,8.00
2019-05-06T00:08:38.901Z,8.00
2019-05-06T00:09:38.880Z,8.00
2019-05-06T00:10:39.222Z,8.00
2019-05-06T00:11:38.873Z,8.00
2019-05-06T00:12:38.871Z,8.00
2019-05-06T00:13:38.847Z,8.00
2019-05-06T00:14:38.903Z,8.00
2019-05-06T00:15:38.837Z,8.00
2019-05-06T00:16:39.274Z,8.00
2019-05-06T00:17:38.867Z,8.00
2019-05-06T00:18:38.819Z,8.00
2019-05-06T00:19:38.839Z,8.00
2019-05-06T00:20:38.832Z,8.00
2019-05-06T00:21:38.790Z,8.00
2019-05-06T00:22:39.067Z,8.00
2019-05-06T00:23:38.798Z,8.00
2019-05-06T00:24:38.774Z,8.00
2019-05-06T00:25:38.787Z,8.00
2019-05-06T00:26:38.767Z,8.00
2019-05-06T00:27:38.751Z,8.00
2019-05-06T00:28:39.150Z,8.00
2019-05-06T00:29:38.755Z,8.00
2019-05-06T00:30:38.738Z,8.00
2019-05-06T00:31:38.742Z,8.00
2019-05-06T00:32:38.751Z,8.00
2019-05-06T00:33:38.752Z,8.00
2019-05-06T00:34:39.156Z,8.00
2019-05-06T00:35:38.749Z,8.00
2019-05-06T00:36:38.710Z,4.00
2019-05-06T00:37:38.707Z,8.00
2019-05-06T00:38:38.713Z,8.00
2019-05-06T00:39:38.723Z,8.00
2019-05-06T00:40:39.038Z,8.00
2019-05-06T00:41:38.671Z,8.00
2019-05-06T00:42:38.670Z,8.00
2019-05-06T00:43:38.676Z,8.00
2019-05-06T00:44:38.649Z,8.00
2019-05-06T00:45:38.674Z,8.00
2019-05-06T00:46:39.006Z,8.00
2019-05-06T00:47:38.634Z,8.00
2019-05-06T00:48:38.639Z,8.00
2019-05-06T00:49:38.637Z,8.00
2019-05-06T00:50:38.635Z,8.00
2019-05-06T00:51:38.619Z,8.00
2019-05-06T00:52:38.949Z,8.00
2019-05-06T00:53:38.604Z,8.00
2019-05-06T00:54:38.584Z,8.00
2019-05-06T00:55:38.594Z,8.00
2019-05-06T00:56:38.595Z,8.00
2019-05-06T00:57:38.619Z,8.00
2019-05-06T00:58:38.821Z,4.00
2019-05-06T00:59:38.579Z,8.00
2019-05-06T01:00:38.591Z,8.00
2019-05-06T01:01:38.537Z,4.00
2019-05-06T01:02:38.549Z,8.00
2019-05-06T01:03:39.000Z,8.00
2019-05-06T01:04:38.548Z,4.00
2019-05-06T01:05:38.516Z,8.00
2019-05-06T01:06:38.536Z,8.00
2019-05-06T01:07:38.524Z,8.00
2019-05-06T01:08:38.568Z,8.00
2019-05-06T01:09:38.858Z,8.00
2019-05-06T01:10:38.504Z,8.00
2019-05-06T01:11:38.496Z,8.00
2019-05-06T01:12:38.465Z,8.00
2019-05-06T01:13:38.489Z,8.00
2019-05-06T01:14:38.729Z,4.00
2019-05-06T01:15:38.464Z,8.00
2019-05-06T01:16:38.442Z,8.00
2019-05-06T01:17:38.460Z,8.00
2019-05-06T01:18:38.436Z,8.00
2019-05-06T01:19:38.934Z,4.00
2019-05-06T01:20:38.453Z,4.00
2019-05-06T01:21:38.454Z,8.00
2019-05-06T01:22:38.413Z,8.00
2019-05-06T01:23:38.432Z,4.00
2019-05-06T01:24:38.768Z,8.00
2019-05-06T01:25:38.403Z,8.00
2019-05-06T01:26:38.394Z,4.00
2019-05-06T01:27:38.398Z,8.00
2019-05-06T01:28:38.386Z,8.00
2019-05-06T01:29:38.667Z,4.00
2019-05-06T01:30:38.373Z,8.00
2019-05-06T01:31:42.709Z,8.00
2019-05-06T01:32:38.378Z,8.00
2019-05-06T01:33:38.367Z,8.00
2019-05-06T01:34:38.705Z,8.00
2019-05-06T01:35:38.329Z,8.00
2019-05-06T01:36:38.373Z,8.00
2019-05-06T01:37:38.333Z,4.00
2019-05-06T01:38:38.348Z,8.00
2019-05-06T01:39:38.298Z,4.00
2019-05-06T01:40:38.570Z,8.00
2019-05-06T01:41:38.344Z,8.00
2019-05-06T01:42:38.367Z,8.00
2019-05-06T01:43:38.295Z,8.00
2019-05-06T01:44:38.293Z,8.00
2019-05-06T01:45:38.289Z,8.00
2019-05-06T01:46:38.592Z,8.00
2019-05-06T01:47:38.280Z,8.00
2019-05-06T01:48:38.242Z,8.00
2019-05-06T01:49:38.261Z,8.00
2019-05-06T01:50:38.309Z,8.00
2019-05-06T01:51:38.242Z,8.00
2019-05-06T01:52:38.595Z,8.00
2019-05-06T01:53:38.216Z,8.00
2019-05-06T01:54:38.216Z,8.00
2019-05-06T01:55:38.216Z,8.00
2019-05-06T01:56:38.216Z,8.00
2019-05-06T01:57:38.208Z,8.00
2019-05-06T01:58:38.546Z,8.00
2019-05-06T01:59:38.207Z,8.00
2019-05-06T02:00:39.570Z,8.00
2019-05-06T02:01:38.187Z,8.00
2019-05-06T02:02:38.171Z,8.00
2019-05-06T02:03:38.186Z,8.00
2019-05-06T02:04:38.415Z,8.00
2019-05-06T02:05:38.161Z,8.00
2019-05-06T02:06:38.176Z,8.00
2019-05-06T02:07:38.151Z,8.00
2019-05-06T02:08:38.188Z,8.00
2019-05-06T02:09:38.136Z,8.00
2019-05-06T02:10:38.367Z,4.00
2019-05-06T02:11:38.121Z,4.00
2019-05-06T02:12:38.103Z,4.00
2019-05-06T02:13:38.119Z,8.00
2019-05-06T02:14:38.105Z,4.00
2019-05-06T02:15:38.095Z,4.00
2019-05-06T02:16:38.536Z,8.00
2019-05-06T02:17:38.089Z,4.00
2019-05-06T02:18:38.067Z,4.00
2019-05-06T02:19:38.056Z,4.00
2019-05-06T02:20:38.066Z,4.00
2019-05-06T02:21:38.035Z,4.00
2019-05-06T02:22:38.441Z,8.00
2019-05-06T02:23:38.102Z,4.00
2019-05-06T02:24:38.020Z,4.00
2019-05-06T02:25:38.022Z,4.00
2019-05-06T02:26:38.019Z,4.00
2019-05-06T02:27:37.997Z,4.00
2019-05-06T02:28:38.305Z,8.00
2019-05-06T02:29:38.004Z,4.00
2019-05-06T02:30:38.010Z,4.00
2019-05-06T02:31:38.026Z,4.00
2019-05-06T02:32:37.975Z,4.00
2019-05-06T02:33:38.008Z,4.00
2019-05-06T02:34:38.289Z,8.00
2019-05-06T02:35:37.955Z,4.00
2019-05-06T02:36:37.969Z,4.00
2019-05-06T02:37:37.949Z,4.00
2019-05-06T02:38:46.486Z,4.00
2019-05-06T02:39:37.982Z,4.00
2019-05-06T02:40:38.312Z,8.00
2019-05-06T02:41:37.899Z,8.00
2019-05-06T02:42:37.918Z,4.00
2019-05-06T02:43:37.921Z,8.00
2019-05-06T02:44:37.898Z,4.00
2019-05-06T02:45:37.880Z,8.00
2019-05-06T02:46:38.233Z,4.00
2019-05-06T02:47:37.887Z,8.00
2019-05-06T02:48:37.874Z,8.00
2019-05-06T02:49:37.866Z,4.00
2019-05-06T02:50:37.856Z,8.00
2019-05-06T02:51:38.360Z,8.00
2019-05-06T02:52:37.826Z,4.00
2019-05-06T02:53:37.837Z,8.00
2019-05-06T02:54:37.832Z,4.00
2019-05-06T02:55:37.850Z,4.00
2019-05-06T02:56:37.854Z,8.00
2019-05-06T02:57:38.316Z,4.00
2019-05-06T02:58:37.799Z,4.00
2019-05-06T02:59:37.816Z,8.00
2019-05-06T03:00:37.842Z,4.00
2019-05-06T03:01:37.803Z,4.00
2019-05-06T03:02:43.400Z,8.00
2019-05-06T03:03:37.776Z,8.00
2019-05-06T03:04:37.767Z,4.00
2019-05-06T03:05:37.770Z,8.00
2019-05-06T03:06:37.762Z,4.00
2019-05-06T03:07:38.103Z,4.00
2019-05-06T03:08:37.760Z,4.00
2019-05-06T03:09:37.721Z,8.00
2019-05-06T03:10:37.744Z,4.00
2019-05-06T03:11:37.757Z,8.00
2019-05-06T03:12:38.039Z,8.00
2019-05-06T03:13:37.756Z,8.00
2019-05-06T03:14:37.708Z,8.00
2019-05-06T03:15:37.713Z,4.00
2019-05-06T03:16:37.685Z,4.00
2019-05-06T03:17:38.046Z,8.00
2019-05-06T03:18:37.686Z,4.00
2019-05-06T03:19:37.681Z,8.00
2019-05-06T03:20:37.687Z,8.00
2019-05-06T03:21:37.663Z,8.00
2019-05-06T03:22:37.952Z,4.00
2019-05-06T03:23:37.633Z,4.00
2019-05-06T03:24:37.633Z,8.00
2019-05-06T03:25:37.639Z,8.00
2019-05-06T03:26:37.639Z,4.00
2019-05-06T03:27:38.030Z,4.00
2019-05-06T03:28:37.636Z,4.00
2019-05-06T03:29:37.622Z,4.00
2019-05-06T03:30:37.638Z,4.00
2019-05-06T03:31:37.596Z,8.00
2019-05-06T03:33:14.288Z,8.00
2019-05-06T03:33:55.390Z,8.00
2019-05-06T03:34:58.742Z,8.00
2019-05-06T03:35:52.230Z,8.00
2019-05-06T03:36:41.232Z,4.00
2019-05-06T03:37:37.901Z,8.00
2019-05-06T03:38:37.555Z,8.00
2019-05-06T03:39:37.542Z,4.00
2019-05-06T03:40:41.792Z,8.00
2019-05-06T03:41:37.514Z,4.00
2019-05-06T03:42:37.895Z,8.00
2019-05-06T03:43:37.502Z,4.00
2019-05-06T03:44:37.499Z,4.00
2019-05-06T03:45:37.497Z,4.00
2019-05-06T03:46:37.537Z,4.00
2019-05-06T03:47:37.836Z,8.00
2019-05-06T03:48:37.484Z,8.00
2019-05-06T03:49:37.462Z,8.00
2019-05-06T03:50:37.470Z,4.00
2019-05-06T03:51:37.459Z,8.00
2019-05-06T03:52:37.656Z,8.00
2019-05-06T03:53:37.424Z,4.00
2019-05-06T03:54:37.421Z,4.00
2019-05-06T03:55:37.433Z,4.00
2019-05-06T03:56:37.416Z,8.00
2019-05-06T03:57:37.769Z,4.00
2019-05-06T03:58:37.425Z,8.00
2019-05-06T03:59:37.397Z,8.00
2019-05-06T04:00:37.387Z,8.00
2019-05-06T04:01:37.377Z,8.00
2019-05-06T04:02:39.564Z,8.00
2019-05-06T04:03:47.205Z,4.00
2019-05-06T04:04:37.342Z,8.00
2019-05-06T04:05:37.357Z,4.00
2019-05-06T04:06:37.353Z,4.00
2019-05-06T04:07:37.347Z,8.00
2019-05-06T04:08:37.342Z,4.00
2019-05-06T04:09:37.988Z,8.00
2019-05-06T04:10:37.364Z,8.00
2019-05-06T04:11:37.299Z,8.00
2019-05-06T04:12:37.317Z,8.00
2019-05-06T04:13:37.300Z,8.00
2019-05-06T04:14:37.301Z,8.00
2019-05-06T04:15:37.823Z,8.00
2019-05-06T04:16:37.283Z,8.00
2019-05-06T04:17:37.254Z,4.00
2019-05-06T04:18:37.260Z,4.00
2019-05-06T04:19:37.254Z,8.00
2019-05-06T04:20:37.246Z,4.00
2019-05-06T04:21:37.876Z,4.00
2019-05-06T04:22:37.251Z,8.00
2019-05-06T04:23:37.240Z,8.00
2019-05-06T04:24:37.225Z,4.00
2019-05-06T04:25:37.218Z,4.00
2019-05-06T04:26:37.203Z,4.00
2019-05-06T04:27:38.674Z,8.00
2019-05-06T04:28:37.202Z,4.00
2019-05-06T04:29:37.187Z,4.00
2019-05-06T04:30:37.181Z,4.00
2019-05-06T04:31:37.172Z,4.00
2019-05-06T04:32:37.171Z,4.00
2019-05-06T04:33:37.714Z,4.00
2019-05-06T04:34:37.166Z,8.00
2019-05-06T04:35:37.155Z,8.00
2019-05-06T04:36:37.180Z,4.00
2019-05-06T04:37:37.133Z,8.00
2019-05-06T04:38:37.101Z,4.00
2019-05-06T04:39:37.726Z,8.00
2019-05-06T04:40:37.103Z,8.00
2019-05-06T04:41:37.150Z,4.00
2019-05-06T04:42:37.097Z,8.00
2019-05-06T04:43:37.087Z,8.00
2019-05-06T04:44:37.081Z,4.00
2019-05-06T04:45:37.641Z,8.00
2019-05-06T04:46:37.165Z,4.00
2019-05-06T04:47:37.066Z,4.00
2019-05-06T04:48:37.103Z,8.00
2019-05-06T04:49:37.067Z,4.00
2019-05-06T04:50:37.039Z,4.00
2019-05-06T04:51:37.640Z,8.00
2019-05-06T04:52:37.015Z,4.00
2019-05-06T04:53:37.009Z,4.00
2019-05-06T04:54:37.004Z,8.00
2019-05-06T04:55:37.001Z,4.00
2019-05-06T04:56:37.006Z,8.00
2019-05-06T04:57:39.300Z,8.00
2019-05-06T04:58:36.964Z,4.00
2019-05-06T04:59:36.989Z,8.00
2019-05-06T05:00:36.975Z,4.00
2019-05-06T05:01:36.968Z,8.00
2019-05-06T05:02:37.004Z,8.00
2019-05-06T05:03:37.340Z,4.00
2019-05-06T05:04:37.174Z,4.00
2019-05-06T05:05:36.972Z,4.00
2019-05-06T05:06:36.931Z,4.00
2019-05-06T05:07:36.910Z,4.00
2019-05-06T05:08:37.221Z,4.00
2019-05-06T05:09:36.918Z,4.00
2019-05-06T05:10:36.882Z,8.00
2019-05-06T05:11:36.886Z,4.00
2019-05-06T05:12:36.865Z,4.00
2019-05-06T05:13:37.222Z,4.00
2019-05-06T05:14:36.908Z,8.00
2019-05-06T05:15:36.871Z,4.00
2019-05-06T05:16:36.897Z,4.00
2019-05-06T05:17:36.845Z,4.00
2019-05-06T05:18:37.057Z,8.00
2019-05-06T05:19:36.838Z,4.00
2019-05-06T05:20:40.759Z,8.00
2019-05-06T05:21:36.831Z,8.00
2019-05-06T05:22:36.825Z,8.00
2019-05-06T05:23:37.260Z,8.00
2019-05-06T05:24:36.805Z,4.00
2019-05-06T05:25:36.773Z,8.00
2019-05-06T05:26:36.781Z,4.00
2019-05-06T05:27:36.768Z,4.00
2019-05-06T05:28:37.108Z,8.00
2019-05-06T05:29:36.804Z,8.00
2019-05-06T05:30:36.743Z,8.00
2019-05-06T05:31:36.751Z,8.00
2019-05-06T05:32:36.720Z,8.00
2019-05-06T05:33:37.044Z,4.00
2019-05-06T05:34:40.395Z,4.00
2019-05-06T05:35:36.733Z,8.00
2019-05-06T05:36:36.727Z,4.00
2019-05-06T05:37:36.716Z,8.00
2019-05-06T05:38:37.049Z,4.00
2019-05-06T05:39:36.679Z,8.00
2019-05-06T05:40:36.718Z,4.00
2019-05-06T05:41:36.672Z,8.00
2019-05-06T05:42:36.673Z,4.00
2019-05-06T05:43:39.378Z,4.00
2019-05-06T05:44:36.676Z,4.00
2019-05-06T05:45:36.664Z,4.00
2019-05-06T05:46:36.651Z,4.00
2019-05-06T05:47:36.656Z,4.00
2019-05-06T05:48:36.921Z,4.00
2019-05-06T05:49:36.611Z,4.00
2019-05-06T05:50:36.603Z,4.00
2019-05-06T05:51:36.618Z,4.00
2019-05-06T05:52:36.587Z,4.00
2019-05-06T05:53:36.844Z,4.00
2019-05-06T05:54:36.569Z,4.00
2019-05-06T05:55:36.570Z,4.00
2019-05-06T05:56:36.570Z,4.00
2019-05-06T05:57:36.554Z,8.00
2019-05-06T05:58:36.549Z,4.00
2019-05-06T05:59:36.843Z,4.00
2019-05-06T06:00:36.567Z,4.00
2019-05-06T06:01:36.542Z,4.00
2019-05-06T06:02:36.515Z,8.00
2019-05-06T06:03:36.519Z,8.00
2019-05-06T06:04:36.912Z,4.00
2019-05-06T06:05:36.494Z,4.00
2019-05-06T06:06:36.514Z,8.00
2019-05-06T06:07:36.479Z,4.00
2019-05-06T06:08:37.023Z,4.00
2019-05-06T06:09:36.458Z,4.00
2019-05-06T06:10:36.825Z,4.00
2019-05-06T06:11:36.473Z,4.00
2019-05-06T06:12:36.462Z,4.00
2019-05-06T06:13:36.440Z,4.00
2019-05-06T06:14:36.412Z,4.00
2019-05-06T06:15:36.415Z,4.00
2019-05-06T06:16:36.733Z,4.00
2019-05-06T06:17:36.398Z,4.00
2019-05-06T06:18:36.423Z,4.00
2019-05-06T06:19:36.446Z,4.00
2019-05-06T06:20:36.400Z,4.00
2019-05-06T06:21:36.439Z,4.00
2019-05-06T06:22:37.125Z,8.00
2019-05-06T06:23:36.353Z,4.00
2019-05-06T06:24:36.357Z,4.00
2019-05-06T06:25:36.351Z,4.00
2019-05-06T06:26:36.328Z,4.00
2019-05-06T06:27:36.382Z,4.00
2019-05-06T06:28:36.716Z,8.00
2019-05-06T06:29:36.346Z,4.00
2019-05-06T06:30:36.323Z,4.00
2019-05-06T06:31:36.311Z,8.00
2019-05-06T06:32:36.309Z,8.00
2019-05-06T06:33:36.309Z,8.00
2019-05-06T06:34:36.583Z,8.00
2019-05-06T06:35:36.291Z,8.00
2019-05-06T06:36:36.284Z,8.00
2019-05-06T06:37:36.280Z,8.00
2019-05-06T06:38:36.266Z,4.00
2019-05-06T06:39:36.236Z,8.00
2019-05-06T06:40:36.640Z,8.00
2019-05-06T06:41:36.223Z,8.00
2019-05-06T06:42:36.241Z,8.00
2019-05-06T06:43:36.230Z,8.00
2019-05-06T06:44:36.225Z,4.00
2019-05-06T06:45:36.187Z,4.00
2019-05-06T06:46:36.647Z,8.00
2019-05-06T06:47:36.193Z,8.00
2019-05-06T06:48:36.178Z,8.00
2019-05-06T06:49:36.190Z,4.00
2019-05-06T06:50:36.170Z,8.00
2019-05-06T06:51:36.150Z,8.00
2019-05-06T06:52:36.646Z,8.00
2019-05-06T06:53:36.134Z,4.00
2019-05-06T06:54:36.134Z,4.00
2019-05-06T06:55:36.116Z,4.00
2019-05-06T06:56:36.125Z,4.00
2019-05-06T06:57:36.126Z,4.00
2019-05-06T06:58:36.456Z,4.00
2019-05-06T06:59:36.119Z,4.00
2019-05-06T07:00:36.075Z,4.00
2019-05-06T07:01:36.103Z,4.00
2019-05-06T07:02:36.079Z,4.00
2019-05-06T07:03:36.061Z,4.00
2019-05-06T07:04:36.427Z,8.00
2019-05-06T07:05:36.089Z,8.00
2019-05-06T07:06:36.042Z,4.00
2019-05-06T07:07:43.709Z,8.00
2019-05-06T07:08:37.648Z,8.00
2019-05-06T07:09:36.405Z,4.00
2019-05-06T07:10:36.030Z,4.00
2019-05-06T07:11:36.011Z,4.00
2019-05-06T07:12:36.018Z,8.00
2019-05-06T07:13:35.997Z,8.00
2019-05-06T07:14:36.444Z,8.00
2019-05-06T07:15:35.960Z,4.00
2019-05-06T07:16:35.981Z,4.00
2019-05-06T07:17:35.966Z,4.00
2019-05-06T07:18:35.958Z,4.00
2019-05-06T07:19:35.946Z,8.00
2019-05-06T07:20:36.275Z,8.00
2019-05-06T07:21:36.163Z,8.00
2019-05-06T07:22:35.949Z,4.00
2019-05-06T07:23:35.907Z,4.00
2019-05-06T07:24:35.932Z,8.00
2019-05-06T07:25:36.354Z,4.00
2019-05-06T07:26:35.902Z,8.00
2019-05-06T07:27:35.888Z,4.00
2019-05-06T07:28:35.887Z,4.00
2019-05-06T07:29:35.884Z,8.00
2019-05-06T07:30:36.330Z,8.00
2019-05-06T07:31:35.875Z,8.00
2019-05-06T07:32:35.891Z,8.00
2019-05-06T07:33:35.861Z,8.00
2019-05-06T07:34:35.830Z,4.00
2019-05-06T07:35:40.469Z,4.00
2019-05-06T07:36:35.829Z,8.00
2019-05-06T07:37:35.796Z,8.00
2019-05-06T07:38:35.844Z,8.00
2019-05-06T07:39:35.814Z,8.00
2019-05-06T07:40:35.810Z,8.00
2019-05-06T07:41:36.452Z,8.00
2019-05-06T07:42:35.778Z,8.00
2019-05-06T07:43:35.755Z,8.00
2019-05-06T07:44:35.780Z,8.00
2019-05-06T07:45:35.822Z,8.00
2019-05-06T07:46:35.737Z,8.00
2019-05-06T07:47:36.233Z,4.00
2019-05-06T07:48:35.723Z,8.00
2019-05-06T07:49:35.721Z,4.00
2019-05-06T07:50:35.717Z,8.00
2019-05-06T07:51:35.718Z,8.00
2019-05-06T07:52:35.694Z,4.00
2019-05-06T07:53:36.113Z,8.00
2019-05-06T07:54:35.730Z,8.00
2019-05-06T07:55:35.676Z,8.00
2019-05-06T07:56:35.679Z,8.00
2019-05-06T07:57:35.670Z,8.00
2019-05-06T07:58:36.182Z,4.00
2019-05-06T07:59:35.669Z,8.00
2019-05-06T08:00:35.631Z,8.00
2019-05-06T08:01:35.623Z,8.00
2019-05-06T08:02:35.641Z,8.00
2019-05-06T08:03:35.603Z,8.00
2019-05-06T08:04:35.974Z,8.00
2019-05-06T08:05:35.623Z,8.00
2019-05-06T08:06:35.583Z,8.00
2019-05-06T08:07:35.603Z,8.00
2019-05-06T08:08:35.577Z,8.00
2019-05-06T08:09:35.821Z,8.00
2019-05-06T08:10:35.554Z,8.00
2019-05-06T08:11:35.556Z,8.00
2019-05-06T08:12:35.557Z,8.00
2019-05-06T08:13:35.543Z,8.00
2019-05-06T08:14:35.538Z,8.00
2019-05-06T08:15:35.821Z,8.00
2019-05-06T08:16:35.521Z,8.00
2019-05-06T08:17:35.526Z,8.00
2019-05-06T08:18:35.502Z,8.00
2019-05-06T08:19:35.507Z,8.00
2019-05-06T08:20:35.493Z,8.00
2019-05-06T08:21:35.897Z,8.00
2019-05-06T08:22:35.462Z,8.00
2019-05-06T08:23:35.460Z,8.00
2019-05-06T08:24:35.462Z,8.00
2019-05-06T08:25:35.433Z,8.00
2019-05-06T08:26:35.449Z,8.00
2019-05-06T08:27:35.688Z,8.00
2019-05-06T08:28:40.685Z,8.00
2019-05-06T08:29:35.411Z,8.00
2019-05-06T08:30:35.544Z,8.00
2019-05-06T08:31:35.405Z,8.00
2019-05-06T08:32:35.422Z,8.00
2019-05-06T08:33:35.731Z,8.00
2019-05-06T08:34:35.358Z,8.00
2019-05-06T08:35:35.366Z,8.00
2019-05-06T08:36:35.356Z,8.00
2019-05-06T08:37:35.361Z,8.00
2019-05-06T08:38:35.346Z,8.00
2019-05-06T08:39:35.607Z,8.00
2019-05-06T08:40:35.312Z,8.00
2019-05-06T08:41:35.313Z,8.00
2019-05-06T08:42:35.327Z,8.00
2019-05-06T08:43:35.292Z,8.00
2019-05-06T08:44:35.302Z,8.00
2019-05-06T08:45:35.602Z,8.00
2019-05-06T08:46:35.297Z,8.00
2019-05-06T08:47:35.287Z,8.00
2019-05-06T08:48:35.253Z,8.00
2019-05-06T08:49:35.245Z,8.00
2019-05-06T08:50:35.243Z,8.00
2019-05-06T08:51:35.639Z,8.00
2019-05-06T08:52:35.239Z,8.00
2019-05-06T08:53:35.236Z,8.00
2019-05-06T08:54:35.223Z,8.00
2019-05-06T08:55:35.218Z,8.00
2019-05-06T08:56:35.199Z,8.00
2019-05-06T08:57:35.595Z,8.00
2019-05-06T08:58:35.182Z,8.00
2019-05-06T08:59:35.181Z,8.00
2019-05-06T09:00:35.184Z,8.00
2019-05-06T09:01:35.178Z,8.00
2019-05-06T09:02:35.145Z,8.00
2019-05-06T09:03:35.463Z,8.00
2019-05-06T09:04:35.153Z,8.00
2019-05-06T09:05:35.137Z,8.00
2019-05-06T09:06:35.175Z,8.00
2019-05-06T09:07:35.109Z,8.00
2019-05-06T09:08:35.523Z,8.00
2019-05-06T09:09:35.110Z,8.00
2019-05-06T09:10:35.102Z,8.00
2019-05-06T09:11:35.098Z,8.00
2019-05-06T09:12:35.081Z,8.00
2019-05-06T09:13:35.073Z,8.00
2019-05-06T09:14:35.310Z,8.00
2019-05-06T09:15:35.051Z,8.00
2019-05-06T09:16:35.046Z,8.00
2019-05-06T09:17:35.030Z,8.00
2019-05-06T09:18:35.032Z,12.00
2019-05-06T09:19:35.319Z,8.00
2019-05-06T09:20:35.005Z,12.00
2019-05-06T09:21:34.996Z,8.00
2019-05-06T09:22:34.991Z,12.00
2019-05-06T09:23:35.002Z,12.00
2019-05-06T09:24:35.454Z,12.00
2019-05-06T09:25:34.985Z,12.00
2019-05-06T09:26:34.979Z,16.00
2019-05-06T09:27:34.974Z,16.00
2019-05-06T09:28:34.956Z,16.00
2019-05-06T09:29:34.954Z,20.00
2019-05-06T09:30:35.390Z,12.00
2019-05-06T09:31:34.938Z,16.00
2019-05-06T09:32:36.022Z,16.00
2019-05-06T09:33:34.916Z,16.00
2019-05-06T09:34:34.938Z,24.00
2019-05-06T09:35:34.911Z,24.00
2019-05-06T09:36:44.245Z,24.00
2019-05-06T09:37:34.929Z,28.00
2019-05-06T09:38:34.863Z,32.00
2019-05-06T09:39:34.856Z,28.00
2019-05-06T09:40:34.885Z,32.00
2019-05-06T09:41:34.863Z,36.00
2019-05-06T09:42:35.150Z,36.00
2019-05-06T09:43:34.832Z,40.00
2019-05-06T09:44:34.836Z,44.00
2019-05-06T09:45:34.840Z,48.00
2019-05-06T09:46:34.809Z,52.00
2019-05-06T09:47:35.164Z,56.00
2019-05-06T09:48:34.802Z,60.00
2019-05-06T09:49:34.809Z,64.00
2019-05-06T09:50:34.809Z,68.00
2019-05-06T09:51:34.755Z,68.00
2019-05-06T09:52:34.769Z,76.00
2019-05-06T09:53:35.000Z,76.00
2019-05-06T09:54:34.773Z,80.00
2019-05-06T09:55:34.755Z,88.00
2019-05-06T09:56:34.723Z,92.00
2019-05-06T09:57:34.736Z,96.00
2019-05-06T09:58:35.259Z,100.00
2019-05-06T09:59:34.757Z,104.00
2019-05-06T10:00:34.715Z,112.00
2019-05-06T10:01:34.680Z,112.00
2019-05-06T10:02:34.690Z,120.00
2019-05-06T10:03:34.671Z,124.00
2019-05-06T10:04:34.924Z,128.00
2019-05-06T10:05:34.672Z,132.00
2019-05-06T10:06:34.655Z,140.00
2019-05-06T10:07:34.650Z,144.00
2019-05-06T10:08:34.648Z,144.00
2019-05-06T10:09:34.905Z,144.00
2019-05-06T10:10:34.619Z,144.00
2019-05-06T10:11:34.608Z,140.00
2019-05-06T10:12:34.610Z,140.00
2019-05-06T10:13:34.605Z,144.00
2019-05-06T10:14:35.043Z,140.00
2019-05-06T10:15:34.575Z,148.00
2019-05-06T10:16:34.621Z,148.00
2019-05-06T10:17:34.587Z,152.00
2019-05-06T10:18:34.583Z,160.00
2019-05-06T10:19:34.994Z,168.00
2019-05-06T10:20:34.557Z,176.00
2019-05-06T10:21:34.544Z,180.00
2019-05-06T10:22:34.559Z,188.00
2019-05-06T10:23:34.601Z,192.00
2019-05-06T10:24:34.568Z,200.00
2019-05-06T10:25:34.819Z,212.00
2019-05-06T10:26:34.497Z,220.00
2019-05-06T10:27:34.495Z,228.00
2019-05-06T10:28:34.545Z,240.00
2019-05-06T10:29:34.478Z,260.00
2019-05-06T10:30:34.483Z,276.00
2019-05-06T10:31:34.900Z,288.00
2019-05-06T10:32:34.504Z,300.00
2019-05-06T10:33:34.451Z,308.00
2019-05-06T10:34:34.478Z,316.00
2019-05-06T10:35:34.444Z,316.00
2019-05-06T10:36:34.422Z,316.00
2019-05-06T10:37:34.686Z,312.00
2019-05-06T10:38:34.410Z,304.00
2019-05-06T10:39:34.410Z,304.00
2019-05-06T10:40:34.401Z,296.00
2019-05-06T10:41:34.402Z,304.00
2019-05-06T10:42:34.379Z,308.00
2019-05-06T10:43:34.735Z,312.00
2019-05-06T10:44:34.360Z,324.00
2019-05-06T10:45:34.355Z,328.00
2019-05-06T10:46:34.334Z,332.00
2019-05-06T10:47:34.341Z,360.00
2019-05-06T10:48:34.347Z,380.00
2019-05-06T10:49:34.667Z,388.00
2019-05-06T10:50:34.330Z,388.00
2019-05-06T10:51:34.311Z,392.00
2019-05-06T10:52:34.323Z,404.00
2019-05-06T10:53:34.286Z,420.00
2019-05-06T10:54:34.289Z,432.00
2019-05-06T10:55:34.606Z,440.00
2019-05-06T10:56:49.521Z,432.00
2019-05-06T10:57:34.273Z,420.00
2019-05-06T10:58:34.276Z,400.00
2019-05-06T10:59:34.272Z,392.00
2019-05-06T11:00:34.244Z,396.00
2019-05-06T11:01:34.491Z,400.00
2019-05-06T11:02:34.243Z,404.00
2019-05-06T11:03:34.219Z,416.00
2019-05-06T11:04:34.204Z,420.00
2019-05-06T11:05:34.225Z,436.00
2019-05-06T11:06:34.660Z,444.00
2019-05-06T11:07:35.298Z,448.00
2019-05-06T11:08:34.173Z,452.00
2019-05-06T11:09:34.182Z,444.00
2019-05-06T11:10:40.773Z,436.00
2019-05-06T11:11:38.484Z,436.00
2019-05-06T11:12:34.618Z,440.00
2019-05-06T11:13:34.157Z,440.00
2019-05-06T11:14:34.136Z,444.00
2019-05-06T11:15:34.142Z,440.00
2019-05-06T11:16:34.133Z,440.00
2019-05-06T11:17:34.148Z,436.00
2019-05-06T11:18:34.361Z,436.00
2019-05-06T11:19:34.122Z,432.00
2019-05-06T11:20:34.124Z,436.00
2019-05-06T11:21:34.105Z,444.00
2019-05-06T11:22:34.098Z,444.00
2019-05-06T11:23:34.079Z,432.00
2019-05-06T11:24:34.542Z,420.00
2019-05-06T11:25:34.044Z,416.00
2019-05-06T11:26:34.065Z,416.00
2019-05-06T11:27:37.548Z,436.00
2019-05-06T11:28:35.297Z,536.00
2019-05-06T11:29:36.720Z,768.00
2019-05-06T11:30:34.024Z,960.00
2019-05-06T11:31:34.012Z,1396.00
2019-05-06T11:32:34.011Z,4312.00
2019-05-06T11:33:34.007Z,6628.00
2019-05-06T11:34:34.005Z,7980.00
2019-05-06T11:35:34.395Z,7792.00
2019-05-06T11:36:33.995Z,5716.00
2019-05-06T11:37:45.807Z,2952.00
2019-05-06T11:38:33.996Z,2180.00
2019-05-06T11:39:33.959Z,2076.00
2019-05-06T11:40:33.983Z,2060.00
2019-05-06T11:41:34.006Z,2076.00
2019-05-06T11:42:35.916Z,2076.00
2019-05-06T11:43:33.935Z,2064.00
2019-05-06T11:44:33.963Z,2060.00
2019-05-06T11:45:33.916Z,2088.00
2019-05-06T11:46:33.962Z,2112.00
2019-05-06T11:47:33.936Z,2112.00
2019-05-06T11:48:33.915Z,2128.00
2019-05-06T11:49:33.936Z,2124.00
2019-05-06T11:50:33.925Z,2140.00
2019-05-06T11:51:33.913Z,2160.00
2019-05-06T11:52:34.596Z,2164.00
2019-05-06T11:53:33.891Z,2116.00
2019-05-06T11:54:33.922Z,2164.00
2019-05-06T11:55:38.641Z,2108.00
2019-05-06T11:56:47.583Z,2108.00
2019-05-06T11:57:33.879Z,2140.00
2019-05-06T11:58:33.882Z,2168.00
2019-05-06T11:59:33.847Z,2152.00
2019-05-06T12:00:35.908Z,2160.00
2019-05-06T12:01:33.845Z,2168.00
2019-05-06T12:02:33.896Z,2172.00
2019-05-06T12:03:33.829Z,2168.00
2019-05-06T12:04:33.862Z,2144.00
2019-05-06T12:05:33.842Z,2144.00
2019-05-06T12:06:33.852Z,2164.00
2019-05-06T12:07:33.836Z,2120.00
2019-05-06T12:08:33.835Z,2076.00
2019-05-06T12:09:33.824Z,2136.00
2019-05-06T12:10:33.796Z,2180.00
2019-05-06T12:11:33.794Z,2184.00
2019-05-06T12:12:33.787Z,2200.00
2019-05-06T12:13:33.886Z,2172.00
2019-05-06T12:14:33.778Z,2160.00
2019-05-06T12:15:33.836Z,2132.00
2019-05-06T12:16:33.809Z,2148.00
2019-05-06T12:17:33.785Z,2156.00
2019-05-06T12:18:33.762Z,2160.00
2019-05-06T12:19:33.757Z,2168.00
2019-05-06T12:20:33.748Z,2168.00
2019-05-06T12:21:33.810Z,2156.00
2019-05-06T12:22:33.747Z,2196.00
2019-05-06T12:23:35.389Z,2204.00
2019-05-06T12:24:33.764Z,2220.00
2019-05-06T12:25:33.753Z,2220.00
2019-05-06T12:26:33.749Z,2212.00
2019-05-06T12:27:33.728Z,2152.00
2019-05-06T12:28:33.734Z,2188.00
2019-05-06T12:29:33.711Z,2172.00
2019-05-06T12:30:33.721Z,2148.00
2019-05-06T12:31:33.707Z,2120.00
2019-05-06T12:32:33.715Z,2084.00
2019-05-06T12:33:33.705Z,2076.00
2019-05-06T12:34:33.743Z,2088.00
2019-05-06T12:35:33.717Z,2084.00
2019-05-06T12:36:33.686Z,2064.00
2019-05-06T12:37:33.684Z,2060.00
2019-05-06T12:38:33.693Z,2052.00
2019-05-06T12:39:33.695Z,2060.00
2019-05-06T12:40:33.703Z,2048.00
2019-05-06T12:41:33.689Z,2076.00
2019-05-06T12:42:33.717Z,2096.00
2019-05-06T12:43:33.665Z,2076.00
2019-05-06T12:44:33.717Z,2060.00
2019-05-06T12:45:33.669Z,2048.00
2019-05-06T12:46:33.656Z,2068.00
2019-05-06T12:47:33.664Z,2068.00
2019-05-06T12:48:33.694Z,2052.00
2019-05-06T12:49:33.641Z,2060.00
2019-05-06T12:50:33.640Z,2084.00
2019-05-06T12:51:33.624Z,2100.00
2019-05-06T12:52:33.641Z,2076.00
2019-05-06T12:53:33.623Z,2152.00
2019-05-06T12:54:33.749Z,2184.00
2019-05-06T12:55:33.834Z,2240.00
2019-05-06T12:56:33.640Z,2260.00
2019-05-06T12:57:34.465Z,2276.00
2019-05-06T12:58:33.637Z,2296.00
2019-05-06T12:59:33.612Z,2304.00
2019-05-06T13:00:33.633Z,2352.00
2019-05-06T13:01:34.165Z,2416.00